Terminal Aerodrome Forecast
Issued by NWS

Home | Current Version | Previous Version | Text Only | Print | Product List | Glossary On
Versions: 1 2 3 4 5 6 7 8 9 10 11 12
000
FTUS43 KILX 231700 RRA
TAFDEC
TAF
KDEC 231743Z 2318/2418 19008KT P6SM BKN150
     FM240000 20008KT P6SM VCSH BKN060
     FM240600 VRB03KT P6SM BKN025
     FM240900 VRB03KT 4SM BR SCT008 BKN025
     FM241500 25005KT P6SM BKN025=

USA.gov is the U.S. government's official web portal to all federal, state and local government web resources and services.